createdAt,value
2019-02-08T00:03:16.704Z,6.90
2019-02-08T00:08:10.419Z,6.80
2019-02-08T00:13:04.541Z,6.80
2019-02-08T00:17:57.059Z,6.80
2019-02-08T00:22:51.060Z,6.80
2019-02-08T00:27:44.775Z,6.70
2019-02-08T00:32:37.099Z,6.70
2019-02-08T00:37:29.303Z,6.70
2019-02-08T00:42:21.077Z,6.70
2019-02-08T00:47:13.326Z,6.60
2019-02-08T00:52:05.608Z,6.60
2019-02-08T00:56:57.678Z,6.50
2019-02-08T01:01:49.869Z,6.50
2019-02-08T01:06:41.883Z,6.50
2019-02-08T01:11:35.799Z,6.50
2019-02-08T01:16:29.926Z,6.40
2019-02-08T01:21:23.482Z,6.40
2019-02-08T01:26:17.073Z,6.30
2019-02-08T01:31:10.302Z,6.20
2019-02-08T01:36:01.688Z,6.10
2019-02-08T01:40:53.290Z,6.00
2019-02-08T01:45:45.465Z,5.80
2019-02-08T01:50:39.120Z,5.80
2019-02-08T01:55:30.637Z,5.70
2019-02-08T02:00:22.596Z,5.70
2019-02-08T02:05:16.800Z,5.60
2019-02-08T02:10:08.315Z,5.60
2019-02-08T02:15:00.331Z,5.60
2019-02-08T02:19:53.559Z,5.60
2019-02-08T02:24:46.189Z,5.60
2019-02-08T02:29:38.052Z,5.60
2019-02-08T02:34:30.118Z,5.60
2019-02-08T02:39:22.231Z,5.60
2019-02-08T02:44:14.152Z,5.70
2019-02-08T02:49:06.123Z,5.70
2019-02-08T02:54:05.592Z,5.70
2019-02-08T02:58:56.418Z,5.70
2019-02-08T03:03:48.348Z,5.70
2019-02-08T03:08:40.746Z,5.80
2019-02-08T03:13:32.545Z,5.70
2019-02-08T03:18:24.622Z,5.70
2019-02-08T03:23:17.358Z,5.80
2019-02-08T03:28:09.141Z,5.80
2019-02-08T03:33:01.261Z,5.80
2019-02-08T03:37:57.297Z,5.90
2019-02-08T03:42:50.301Z,5.90
2019-02-08T03:47:43.518Z,6.00
2019-02-08T03:52:37.170Z,6.10
2019-02-08T03:57:30.094Z,6.10
2019-02-08T04:02:22.046Z,6.10
2019-02-08T04:07:13.983Z,6.10
2019-02-08T04:12:06.237Z,6.20
2019-02-08T04:16:58.176Z,6.20
2019-02-08T04:21:50.381Z,6.20
2019-02-08T04:26:42.321Z,6.20
2019-02-08T04:31:34.318Z,6.30
2019-02-08T04:36:26.503Z,6.30
2019-02-08T04:41:18.826Z,6.30
2019-02-08T04:46:10.758Z,6.30
2019-02-08T04:51:02.894Z,6.20
2019-02-08T04:55:54.878Z,6.20
2019-02-08T05:00:52.929Z,6.10
2019-02-08T05:05:42.251Z,6.10
2019-02-08T05:10:34.188Z,6.20
2019-02-08T05:15:26.170Z,6.20
2019-02-08T05:20:18.322Z,6.20
2019-02-08T05:25:20.190Z,6.20
2019-02-08T05:30:06.543Z,6.30
2019-02-08T05:34:57.730Z,6.30
2019-02-08T05:39:49.802Z,6.30
2019-02-08T05:44:43.644Z,6.30
2019-02-08T05:49:35.170Z,6.40
2019-02-08T05:54:27.283Z,6.40
2019-02-08T05:59:19.026Z,6.40
2019-02-08T06:04:11.106Z,6.40
2019-02-08T06:09:02.930Z,6.40
2019-02-08T06:13:54.764Z,6.40
2019-02-08T06:18:46.715Z,6.30
2019-02-08T06:23:38.914Z,6.40
2019-02-08T06:28:31.483Z,6.40
2019-02-08T06:33:23.461Z,6.40
2019-02-08T06:38:16.037Z,6.50
2019-02-08T06:43:08.093Z,6.50
2019-02-08T06:48:01.184Z,6.50
2019-02-08T06:52:53.402Z,6.50
2019-02-08T06:57:45.579Z,6.50
2019-02-08T07:02:37.686Z,6.60
2019-02-08T07:07:31.688Z,6.60
2019-02-08T07:12:25.274Z,6.60
2019-02-08T07:17:16.990Z,6.70
2019-02-08T07:22:08.991Z,6.80
2019-02-08T07:27:03.046Z,6.90
2019-02-08T07:31:56.636Z,7.00
2019-02-08T07:36:48.306Z,7.00
2019-02-08T07:41:42.207Z,7.10
2019-02-08T07:46:35.868Z,7.10
2019-02-08T07:51:27.349Z,7.10
2019-02-08T07:56:20.958Z,7.20
2019-02-08T08:01:14.816Z,7.20
2019-02-08T08:06:08.927Z,7.30
2019-02-08T08:11:00.236Z,7.30
2019-02-08T08:15:50.426Z,7.30
2019-02-08T08:20:42.136Z,7.40
2019-02-08T08:25:35.134Z,7.40
2019-02-08T08:30:27.535Z,7.40
2019-02-08T08:35:21.265Z,7.40
2019-02-08T08:40:14.398Z,7.40
2019-02-08T08:45:06.120Z,7.40
2019-02-08T08:49:58.004Z,7.50
2019-02-08T08:54:49.868Z,7.60
2019-02-08T08:59:41.983Z,7.60
2019-02-08T09:04:35.628Z,7.60
2019-02-08T09:09:28.953Z,7.60
2019-02-08T09:14:22.317Z,7.60
2019-02-08T09:19:14.990Z,7.60
2019-02-08T09:24:06.606Z,7.60
2019-02-08T09:28:58.562Z,7.60
2019-02-08T09:33:50.755Z,7.70
2019-02-08T09:38:43.198Z,7.80
2019-02-08T09:43:35.392Z,7.90
2019-02-08T09:48:29.783Z,8.00
2019-02-08T09:53:23.315Z,8.10
2019-02-08T09:58:14.946Z,8.10
2019-02-08T09:58:52.944Z,8.20
2019-02-08T10:03:44.025Z,8.10
2019-02-08T10:08:38.414Z,8.30
2019-02-08T10:13:32.355Z,8.30
2019-02-08T10:18:24.403Z,8.40
2019-02-08T10:23:16.737Z,8.50
2019-02-08T10:28:08.840Z,8.60
2019-02-08T10:33:01.166Z,8.60
2019-02-08T10:37:54.912Z,8.60
2019-02-08T10:42:46.742Z,8.70
2019-02-08T10:47:40.791Z,8.70
2019-02-08T10:52:32.858Z,8.80
2019-02-08T10:57:27.173Z,8.80
2019-02-08T11:02:18.841Z,8.90
2019-02-08T11:07:10.853Z,8.90
2019-02-08T11:12:05.031Z,9.00
2019-02-08T11:16:57.127Z,9.10
2019-02-08T11:21:51.333Z,9.10
2019-02-08T11:26:43.234Z,9.10
2019-02-08T11:31:35.485Z,9.10
2019-02-08T11:36:28.525Z,9.30
2019-02-08T11:41:20.199Z,9.30
2019-02-08T11:46:12.383Z,9.40
2019-02-08T11:51:05.016Z,9.40
2019-02-08T11:55:59.134Z,9.40
2019-02-08T12:00:51.058Z,9.40
2019-02-08T12:05:43.057Z,9.50
2019-02-08T12:10:37.146Z,9.40
2019-02-08T12:15:30.799Z,9.40
2019-02-08T12:20:24.411Z,9.30
2019-02-08T12:25:17.990Z,9.30
2019-02-08T12:30:09.127Z,9.30
2019-02-08T12:35:01.228Z,9.30
2019-02-08T12:39:53.263Z,9.30
2019-02-08T12:44:47.801Z,9.40
2019-02-08T12:49:40.157Z,9.50
2019-02-08T12:54:32.186Z,9.60
2019-02-08T12:59:26.406Z,9.70
2019-02-08T13:04:18.126Z,9.80
2019-02-08T13:09:10.773Z,9.90
2019-02-08T13:14:04.962Z,9.90
2019-02-08T13:18:56.807Z,10.00
2019-02-08T13:23:50.934Z,10.00
2019-02-08T13:28:42.721Z,10.00
2019-02-08T13:33:34.774Z,10.00
2019-02-08T13:38:27.600Z,10.00
2019-02-08T13:43:20.214Z,10.00
2019-02-08T13:48:11.654Z,10.10
2019-02-08T13:53:05.670Z,10.20
2019-02-08T13:57:59.483Z,10.20
2019-02-08T14:02:51.229Z,10.10
2019-02-08T14:07:43.281Z,10.10
2019-02-08T14:12:37.535Z,10.10
2019-02-08T14:17:31.541Z,10.10
2019-02-08T14:22:24.656Z,10.10
2019-02-08T14:27:16.931Z,10.00
2019-02-08T14:32:08.934Z,10.00
2019-02-08T14:37:01.287Z,10.00
2019-02-08T14:41:53.876Z,10.00
2019-02-08T14:46:45.823Z,10.00
2019-02-08T14:51:38.772Z,10.00
2019-02-08T14:56:31.733Z,10.00
2019-02-08T15:01:23.699Z,10.00
2019-02-08T15:06:17.871Z,10.00
2019-02-08T15:11:09.526Z,10.00
2019-02-08T15:16:01.955Z,10.00
2019-02-08T15:20:56.351Z,10.10
2019-02-08T15:25:48.338Z,10.00
2019-02-08T15:30:40.571Z,10.00
2019-02-08T15:35:36.067Z,10.00
2019-02-08T15:40:29.635Z,9.80
2019-02-08T15:45:20.992Z,9.60
2019-02-08T15:50:15.084Z,9.50
2019-02-08T15:55:07.089Z,9.40
2019-02-08T15:59:59.068Z,9.40
2019-02-08T16:04:51.247Z,9.40
2019-02-08T16:09:43.103Z,9.40
2019-02-08T16:14:35.133Z,9.40
2019-02-08T16:19:27.511Z,9.50
2019-02-08T16:24:21.679Z,9.70
2019-02-08T16:29:14.545Z,9.80
2019-02-08T16:34:06.767Z,9.80
2019-02-08T16:38:59.158Z,9.80
2019-02-08T16:43:51.777Z,9.90
2019-02-08T16:48:43.694Z,9.90
2019-02-08T16:53:37.855Z,9.90
2019-02-08T16:58:30.288Z,9.80
2019-02-08T17:03:22.206Z,9.80
2019-02-08T17:08:14.829Z,9.70
2019-02-08T17:10:37.410Z,9.60
2019-02-08T17:10:58.615Z,9.60
2019-02-08T17:12:42.030Z,9.60
2019-02-08T17:13:10.517Z,9.60
2019-02-08T17:14:14.780Z,9.60
2019-02-08T17:15:51.363Z,9.60
2019-02-08T17:16:22.397Z,9.60
2019-02-08T17:52:11.707Z,9.40
2019-02-08T17:57:03.868Z,9.40
2019-02-08T18:02:40.273Z,9.40
2019-02-08T18:03:53.226Z,9.40
2019-02-08T18:06:02.420Z,9.50
2019-02-08T18:06:29.052Z,9.50
2019-02-08T18:07:48.807Z,9.40
2019-02-08T18:12:41.787Z,9.50
2019-02-08T18:17:35.183Z,9.50
2019-02-08T18:22:28.950Z,9.50
2019-02-08T18:27:21.178Z,9.50
2019-02-08T18:32:15.162Z,9.50
2019-02-08T18:37:09.025Z,9.60
2019-02-08T18:42:02.691Z,9.60
2019-02-08T18:46:54.631Z,9.70
2019-02-08T18:51:49.232Z,9.70
2019-02-08T18:56:42.888Z,9.70
2019-02-08T19:01:37.262Z,9.70
2019-02-08T19:06:31.133Z,9.70
2019-02-08T19:11:24.951Z,9.70
2019-02-08T19:16:18.762Z,9.70
2019-02-08T19:21:12.687Z,9.80
2019-02-08T19:26:06.472Z,9.80
2019-02-08T19:30:59.941Z,9.80
2019-02-08T19:35:53.654Z,9.80
2019-02-08T19:40:47.146Z,9.80
2019-02-08T19:45:39.305Z,9.80
2019-02-08T19:50:33.354Z,9.80
2019-02-08T19:55:28.169Z,9.80
2019-02-08T20:00:21.634Z,9.80
2019-02-08T20:05:16.241Z,9.80
2019-02-08T20:10:07.591Z,9.80
2019-02-08T20:15:01.594Z,9.80
2019-02-08T20:19:55.413Z,9.70
2019-02-08T20:24:47.183Z,9.70
2019-02-08T20:29:41.371Z,9.70
2019-02-08T20:34:35.010Z,9.70
2019-02-08T20:39:28.661Z,9.70
2019-02-08T20:44:22.436Z,9.60
2019-02-08T20:49:16.173Z,9.60
2019-02-08T20:54:09.806Z,9.50
2019-02-08T20:59:02.000Z,9.50
2019-02-08T21:03:55.985Z,9.60
2019-02-08T21:08:49.494Z,9.50
2019-02-08T21:13:41.570Z,9.50
2019-02-08T21:18:35.286Z,9.50
2019-02-08T21:23:28.966Z,9.50
2019-02-08T21:28:23.660Z,9.40
2019-02-08T21:33:17.202Z,9.40
2019-02-08T21:38:08.826Z,9.40
2019-02-08T21:43:01.062Z,9.40
2019-02-08T21:47:54.906Z,9.30
2019-02-08T21:52:48.758Z,9.30
2019-02-08T21:57:42.779Z,9.00
2019-02-08T22:02:35.905Z,8.80
2019-02-08T22:07:38.136Z,8.70
2019-02-08T22:12:30.324Z,8.50
2019-02-08T22:17:23.732Z,8.40
2019-02-08T22:22:15.051Z,8.30
2019-02-08T22:27:09.181Z,8.30
2019-02-08T22:32:02.575Z,8.20
2019-02-08T22:36:56.465Z,8.20
2019-02-08T22:41:47.918Z,8.20
2019-02-08T22:46:40.898Z,8.10
2019-02-08T22:51:34.315Z,8.10
2019-02-08T22:56:28.408Z,8.10
2019-02-08T23:01:22.748Z,8.10
2019-02-08T23:06:16.405Z,8.10
2019-02-08T23:11:08.209Z,8.00
2019-02-08T23:15:59.723Z,7.90
2019-02-08T23:20:51.441Z,7.90
2019-02-08T23:25:43.474Z,7.80
2019-02-08T23:30:37.396Z,7.70
2019-02-08T23:35:28.852Z,7.70
2019-02-08T23:40:21.570Z,7.60
2019-02-08T23:45:13.551Z,7.60
2019-02-08T23:50:05.470Z,7.60
2019-02-08T23:54:57.552Z,7.60
2019-02-08T23:59:51.434Z,7.60
